createdAt,value
2017-04-09T00:00:31.060Z,32.23
2017-04-09T00:01:30.807Z,35.53
2017-04-09T00:02:30.651Z,36.34
2017-04-09T00:03:30.400Z,33.50
2017-04-09T00:04:30.159Z,35.41
2017-04-09T00:05:29.879Z,35.69
2017-04-09T00:06:29.592Z,37.29
2017-04-09T00:07:29.416Z,36.14
2017-04-09T00:08:29.200Z,36.43
2017-04-09T00:09:28.887Z,36.17
2017-04-09T00:10:28.642Z,34.56
2017-04-09T00:11:28.594Z,36.00
2017-04-09T00:12:28.431Z,32.71
2017-04-09T00:13:28.352Z,38.81
2017-04-09T00:14:28.198Z,33.76
2017-04-09T00:15:27.992Z,35.40
2017-04-09T00:16:27.669Z,35.27
2017-04-09T00:17:27.383Z,34.36
2017-04-09T00:18:27.163Z,34.23
2017-04-09T00:19:26.945Z,35.16
2017-04-09T00:20:26.639Z,37.84
2017-04-09T00:21:26.403Z,35.74
2017-04-09T00:22:26.119Z,32.34
2017-04-09T00:23:25.832Z,33.77
2017-04-09T00:24:25.546Z,32.61
2017-04-09T00:25:25.247Z,35.06
2017-04-09T00:26:24.982Z,34.33
2017-04-09T00:27:24.732Z,34.99
2017-04-09T00:28:24.436Z,32.93
2017-04-09T00:29:24.178Z,34.46
2017-04-09T00:30:24.038Z,35.20
2017-04-09T00:31:23.734Z,33.94
2017-04-09T00:32:23.508Z,34.73
2017-04-09T00:33:23.180Z,38.29
2017-04-09T00:34:23.237Z,38.33
2017-04-09T00:35:23.052Z,34.03
2017-04-09T00:36:22.809Z,35.46
2017-04-09T00:37:22.499Z,38.84
2017-04-09T00:38:22.199Z,34.57
2017-04-09T00:39:21.916Z,36.74
2017-04-09T00:40:21.628Z,39.44
2017-04-09T00:41:22.291Z,35.99
2017-04-09T00:42:22.067Z,43.23
2017-04-09T00:43:25.959Z,36.81
2017-04-09T00:44:25.627Z,33.06
2017-04-09T00:45:25.419Z,34.57
2017-04-09T00:46:25.103Z,34.34
2017-04-09T00:47:25.135Z,34.94
2017-04-09T00:48:24.812Z,36.93
2017-04-09T00:49:24.504Z,36.09
2017-04-09T00:50:24.217Z,35.07
2017-04-09T00:51:23.913Z,35.53
2017-04-09T00:52:23.599Z,37.04
2017-04-09T00:53:23.287Z,33.39
2017-04-09T00:54:23.307Z,36.19
2017-04-09T00:55:23.035Z,31.29
2017-04-09T00:56:22.760Z,36.90
2017-04-09T00:57:22.828Z,36.73
2017-04-09T00:58:23.132Z,31.84
2017-04-09T00:59:23.048Z,41.29
2017-04-09T01:00:22.813Z,32.36
2017-04-09T01:01:22.491Z,37.59
2017-04-09T01:02:22.191Z,38.97
2017-04-09T01:03:21.901Z,35.06
2017-04-09T01:04:21.656Z,36.83
2017-04-09T01:05:21.376Z,35.93
2017-04-09T01:06:21.092Z,37.76
2017-04-09T01:07:20.783Z,35.23
2017-04-09T01:08:20.589Z,33.51
2017-04-09T01:09:20.473Z,36.26
2017-04-09T01:10:20.303Z,36.29
2017-04-09T01:11:20.177Z,31.34
2017-04-09T01:12:19.865Z,34.40
2017-04-09T01:13:19.555Z,36.93
2017-04-09T01:14:19.271Z,32.53
2017-04-09T01:15:25.035Z,30.86
2017-04-09T01:16:24.864Z,31.99
2017-04-09T01:17:24.681Z,34.44
2017-04-09T01:18:24.487Z,38.19
2017-04-09T01:19:24.275Z,33.46
2017-04-09T01:20:24.017Z,34.43
2017-04-09T01:21:23.707Z,32.89
2017-04-09T01:22:23.646Z,35.14
2017-04-09T01:23:23.376Z,34.64
2017-04-09T01:24:23.206Z,38.37
2017-04-09T01:25:23.550Z,34.90
2017-04-09T01:26:23.379Z,38.36
2017-04-09T01:27:23.141Z,34.54
2017-04-09T01:28:22.772Z,31.94
2017-04-09T01:29:22.475Z,32.66
2017-04-09T01:30:23.240Z,32.86
2017-04-09T01:31:23.089Z,33.57
2017-04-09T01:32:22.782Z,33.00
2017-04-09T01:33:22.503Z,34.11
2017-04-09T01:34:22.225Z,37.70
2017-04-09T01:35:21.896Z,34.77
2017-04-09T01:36:21.688Z,32.10
2017-04-09T01:37:21.379Z,31.47
2017-04-09T01:38:21.107Z,37.50
2017-04-09T01:39:20.875Z,42.19
2017-04-09T01:40:20.671Z,39.14
2017-04-09T01:41:20.427Z,42.44
2017-04-09T01:42:20.268Z,44.77
2017-04-09T01:43:20.016Z,40.51
2017-04-09T01:44:19.735Z,35.93
2017-04-09T01:45:19.547Z,33.26
2017-04-09T01:46:19.383Z,38.43
2017-04-09T01:47:19.243Z,37.16
2017-04-09T01:49:27.973Z,33.33
2017-04-09T01:50:27.699Z,31.51
2017-04-09T01:51:27.459Z,37.56
2017-04-09T01:52:27.167Z,32.63
2017-04-09T01:53:26.891Z,31.50
2017-04-09T01:54:26.581Z,29.10
2017-04-09T01:55:26.235Z,30.94
2017-04-09T01:56:25.950Z,35.59
2017-04-09T01:57:25.853Z,31.21
2017-04-09T01:58:25.533Z,38.24
2017-04-09T01:59:25.255Z,35.96
2017-04-09T02:00:24.951Z,39.16
2017-04-09T02:01:24.675Z,33.44
2017-04-09T02:02:24.441Z,35.90
2017-04-09T02:03:24.174Z,41.33
2017-04-09T02:04:23.890Z,35.74
2017-04-09T02:05:23.603Z,39.16
2017-04-09T02:06:23.316Z,40.00
2017-04-09T02:07:22.987Z,32.99
2017-04-09T02:08:22.697Z,37.81
2017-04-09T02:09:22.393Z,35.41
2017-04-09T02:10:22.223Z,40.36
2017-04-09T02:11:22.274Z,33.86
2017-04-09T02:12:22.101Z,40.56
2017-04-09T02:13:21.930Z,36.90
2017-04-09T02:14:21.696Z,42.83
2017-04-09T02:15:21.420Z,37.83
2017-04-09T02:16:21.124Z,47.59
2017-04-09T02:17:20.855Z,36.06
2017-04-09T02:18:20.628Z,36.64
2017-04-09T02:19:20.327Z,37.00
2017-04-09T02:20:20.075Z,40.86
2017-04-09T02:21:19.915Z,38.13
2017-04-09T02:22:19.681Z,38.47
2017-04-09T02:23:19.469Z,45.19
2017-04-09T02:24:19.196Z,42.09
2017-04-09T02:25:18.898Z,43.37
2017-04-09T02:26:18.580Z,36.84
2017-04-09T02:27:18.352Z,38.07
2017-04-09T02:28:18.050Z,41.27
2017-04-09T02:29:17.711Z,41.56
2017-04-09T02:30:17.509Z,37.87
2017-04-09T02:31:17.376Z,36.76
2017-04-09T02:32:17.072Z,52.79
2017-04-09T02:33:17.269Z,37.54
2017-04-09T02:34:16.976Z,38.03
2017-04-09T02:35:16.706Z,36.83
2017-04-09T02:36:16.462Z,39.93
2017-04-09T02:37:16.196Z,35.63
2017-04-09T02:38:15.873Z,32.99
2017-04-09T02:39:15.583Z,36.63
2017-04-09T02:40:15.232Z,34.83
2017-04-09T02:41:14.941Z,38.19
2017-04-09T02:42:14.862Z,44.31
2017-04-09T02:43:14.592Z,35.00
2017-04-09T02:44:14.280Z,34.01
2017-04-09T02:45:14.085Z,32.24
2017-04-09T02:46:13.827Z,34.47
2017-04-09T02:47:13.536Z,36.24
2017-04-09T02:48:13.244Z,40.06
2017-04-09T02:49:12.950Z,37.91
2017-04-09T02:50:12.697Z,40.87
2017-04-09T02:51:12.407Z,39.79
2017-04-09T02:52:12.352Z,35.26
2017-04-09T02:53:12.107Z,33.14
2017-04-09T02:54:11.954Z,32.29
2017-04-09T02:55:11.640Z,35.79
2017-04-09T02:56:11.531Z,33.04
2017-04-09T02:57:11.311Z,39.04
2017-04-09T02:58:11.019Z,36.13
2017-04-09T02:59:10.712Z,42.79
2017-04-09T03:00:10.569Z,35.71
2017-04-09T03:01:10.266Z,35.64
2017-04-09T03:02:09.996Z,39.43
2017-04-09T03:03:09.746Z,38.71
2017-04-09T03:04:09.440Z,38.50
2017-04-09T03:05:09.154Z,34.30
2017-04-09T03:06:08.856Z,33.46
2017-04-09T03:07:08.514Z,32.11
2017-04-09T03:08:08.280Z,41.31
2017-04-09T03:09:08.056Z,50.83
2017-04-09T03:10:07.726Z,42.46
2017-04-09T03:11:07.496Z,51.36
2017-04-09T03:12:07.223Z,47.04
2017-04-09T03:13:06.968Z,39.91
2017-04-09T03:14:06.644Z,41.30
2017-04-09T03:15:06.382Z,45.54
2017-04-09T03:16:06.119Z,56.77
2017-04-09T03:17:06.058Z,74.74
2017-04-09T03:18:05.775Z,66.91
2017-04-09T03:19:05.541Z,42.64
2017-04-09T03:20:05.227Z,77.06
2017-04-09T03:21:04.947Z,58.90
2017-04-09T03:22:04.732Z,84.27
2017-04-09T03:23:04.448Z,53.51
2017-04-09T03:24:04.137Z,44.64
2017-04-09T03:25:03.848Z,59.07
2017-04-09T03:26:03.587Z,53.04
2017-04-09T03:27:03.543Z,45.74
2017-04-09T03:28:03.244Z,54.67
2017-04-09T03:29:02.950Z,40.51
2017-04-09T03:30:02.610Z,49.14
2017-04-09T03:31:02.319Z,47.83
2017-04-09T03:32:02.060Z,59.66
2017-04-09T03:33:01.824Z,42.71
2017-04-09T03:34:01.491Z,40.16
2017-04-09T03:35:01.227Z,38.16
2017-04-09T03:36:00.943Z,56.11
2017-04-09T03:37:00.655Z,43.11
2017-04-09T03:38:00.543Z,42.61
2017-04-09T03:39:00.306Z,37.44
2017-04-09T03:40:00.234Z,38.97
2017-04-09T03:41:00.888Z,39.09
2017-04-09T03:42:00.620Z,49.59
2017-04-09T03:43:00.556Z,57.06
2017-04-09T03:44:00.264Z,44.20
2017-04-09T03:44:59.990Z,41.90
2017-04-09T03:46:00.024Z,39.41
2017-04-09T03:46:59.867Z,45.74
2017-04-09T03:47:59.532Z,37.37
2017-04-09T03:48:59.271Z,36.81
2017-04-09T03:49:59.018Z,39.23
2017-04-09T03:50:58.704Z,34.49
2017-04-09T03:51:58.384Z,32.24
2017-04-09T03:52:58.060Z,31.27
2017-04-09T03:53:57.785Z,33.71
2017-04-09T03:54:57.487Z,33.61
2017-04-09T03:55:57.155Z,29.61
2017-04-09T03:56:56.892Z,44.20
2017-04-09T03:57:56.561Z,46.17
2017-04-09T03:58:56.260Z,32.76
2017-04-09T03:59:55.927Z,37.43
2017-04-09T04:00:55.887Z,42.39
2017-04-09T04:01:55.682Z,39.37
2017-04-09T04:02:55.610Z,34.89
2017-04-09T04:03:55.286Z,34.53
2017-04-09T04:04:55.032Z,35.34
2017-04-09T04:05:54.727Z,42.96
2017-04-09T04:06:54.425Z,51.00
2017-04-09T04:07:54.095Z,59.66
2017-04-09T04:08:53.808Z,43.96
2017-04-09T04:09:53.479Z,45.77
2017-04-09T04:10:53.207Z,43.31
2017-04-09T04:11:52.928Z,45.67
2017-04-09T04:12:52.597Z,41.79
2017-04-09T04:13:52.311Z,81.37
2017-04-09T04:14:52.020Z,55.20
2017-04-09T04:15:51.782Z,39.99
2017-04-09T04:16:51.472Z,81.94
2017-04-09T04:17:51.163Z,70.33
2017-04-09T04:18:50.866Z,55.91
2017-04-09T04:19:50.631Z,59.97
2017-04-09T04:20:50.363Z,57.63
2017-04-09T04:21:50.312Z,100.97
2017-04-09T04:22:49.951Z,74.40
2017-04-09T04:23:50.659Z,102.80
2017-04-09T04:24:50.443Z,61.39
2017-04-09T04:25:50.164Z,58.91
2017-04-09T04:26:49.851Z,67.60
2017-04-09T04:27:49.591Z,60.50
2017-04-09T04:28:49.271Z,48.57
2017-04-09T04:29:48.975Z,55.86
2017-04-09T04:30:48.729Z,41.69
2017-04-09T04:31:48.415Z,63.31
2017-04-09T04:32:48.063Z,59.43
2017-04-09T04:33:47.727Z,45.56
2017-04-09T04:34:47.403Z,46.03
2017-04-09T04:35:47.131Z,45.76
2017-04-09T04:36:46.831Z,58.54
2017-04-09T04:37:46.536Z,64.84
2017-04-09T04:38:46.223Z,66.51
2017-04-09T04:39:45.954Z,86.43
2017-04-09T04:40:45.679Z,63.11
2017-04-09T04:41:45.340Z,70.07
2017-04-09T04:42:45.092Z,63.69
2017-04-09T04:43:45.085Z,60.16
2017-04-09T04:44:44.946Z,58.41
2017-04-09T04:45:44.649Z,77.99
2017-04-09T04:46:44.540Z,67.90
2017-04-09T04:47:44.249Z,77.84
2017-04-09T04:48:43.926Z,57.17
2017-04-09T04:49:43.600Z,63.79
2017-04-09T04:50:43.263Z,64.40
2017-04-09T04:51:42.963Z,54.47
2017-04-09T04:52:42.656Z,43.39
2017-04-09T04:53:42.452Z,39.74
2017-04-09T04:54:42.121Z,44.86
2017-04-09T04:55:41.840Z,45.04
2017-04-09T04:56:41.549Z,39.76
2017-04-09T04:57:41.218Z,35.04
2017-04-09T04:58:40.915Z,39.03
2017-04-09T04:59:40.612Z,42.01
2017-04-09T05:00:40.330Z,36.83
2017-04-09T05:01:40.031Z,40.19
2017-04-09T05:02:39.719Z,35.61
2017-04-09T05:03:39.374Z,37.53
2017-04-09T05:04:39.031Z,35.10
2017-04-09T05:05:38.862Z,40.76
2017-04-09T05:06:38.519Z,32.04
2017-04-09T05:07:38.385Z,30.86
2017-04-09T05:08:38.148Z,33.27
2017-04-09T05:09:37.834Z,31.27
2017-04-09T05:10:37.587Z,34.20
2017-04-09T05:11:37.284Z,35.61
2017-04-09T05:12:36.976Z,31.16
2017-04-09T05:13:36.659Z,34.76
2017-04-09T05:14:36.386Z,42.31
2017-04-09T05:15:36.068Z,32.96
2017-04-09T05:16:35.731Z,35.47
2017-04-09T05:17:35.416Z,42.64
2017-04-09T05:18:35.084Z,36.64
2017-04-09T05:19:34.771Z,36.13
2017-04-09T05:20:34.459Z,42.04
2017-04-09T05:21:34.175Z,54.69
2017-04-09T05:22:33.875Z,47.11
2017-04-09T05:23:33.590Z,57.16
2017-04-09T05:24:33.325Z,46.86
2017-04-09T05:25:32.986Z,42.23
2017-04-09T05:26:32.720Z,39.93
2017-04-09T05:27:32.415Z,38.87
2017-04-09T05:28:32.299Z,54.57
2017-04-09T05:29:32.020Z,75.51
2017-04-09T05:30:31.758Z,46.43
2017-04-09T05:31:31.509Z,39.01
2017-04-09T05:32:31.365Z,38.26
2017-04-09T05:33:31.059Z,51.09
2017-04-09T05:34:30.741Z,37.69
2017-04-09T05:35:30.436Z,32.69
2017-04-09T05:36:30.123Z,28.84
2017-04-09T05:37:29.788Z,25.81
2017-04-09T05:38:29.549Z,28.40
2017-04-09T05:39:29.271Z,28.73
2017-04-09T05:40:28.939Z,32.64
2017-04-09T05:41:28.632Z,32.70
2017-04-09T05:42:28.319Z,43.07
2017-04-09T05:43:28.055Z,37.79
2017-04-09T05:44:28.136Z,48.83
2017-04-09T05:45:27.857Z,55.96
2017-04-09T05:46:27.545Z,50.24
2017-04-09T05:47:27.228Z,48.19
2017-04-09T05:48:26.867Z,47.94
2017-04-09T05:49:26.767Z,42.69
2017-04-09T05:50:26.498Z,48.47
2017-04-09T05:51:26.415Z,42.63
2017-04-09T05:52:26.164Z,47.59
2017-04-09T05:53:25.803Z,53.99
2017-04-09T05:54:25.528Z,49.26
2017-04-09T05:55:25.246Z,62.47
2017-04-09T05:56:24.906Z,62.24
2017-04-09T05:57:24.608Z,72.63
2017-04-09T05:58:24.275Z,63.74
2017-04-09T05:59:24.280Z,87.64
2017-04-09T06:00:23.963Z,71.51
2017-04-09T06:01:23.637Z,75.51
2017-04-09T06:02:23.320Z,91.57
2017-04-09T06:03:22.976Z,80.37
2017-04-09T06:04:22.683Z,82.93
2017-04-09T06:05:22.366Z,75.27
2017-04-09T06:06:22.071Z,67.30
2017-04-09T06:07:21.781Z,65.84
2017-04-09T06:08:21.533Z,73.90
2017-04-09T06:09:21.320Z,71.66
2017-04-09T06:10:21.084Z,61.11
2017-04-09T06:11:20.770Z,64.11
2017-04-09T06:12:20.892Z,70.09
2017-04-09T06:13:20.666Z,55.39
2017-04-09T06:14:20.388Z,52.96
2017-04-09T06:15:20.183Z,56.33
2017-04-09T06:16:19.894Z,54.27
2017-04-09T06:17:19.607Z,57.51
2017-04-09T06:18:19.397Z,50.59
2017-04-09T06:19:19.158Z,43.71
2017-04-09T06:20:18.819Z,52.11
2017-04-09T06:21:18.524Z,46.67
2017-04-09T06:22:18.248Z,52.60
2017-04-09T06:23:17.947Z,42.76
2017-04-09T06:24:17.692Z,46.81
2017-04-09T06:25:17.400Z,46.53
2017-04-09T06:26:17.111Z,40.27
2017-04-09T06:27:16.782Z,41.97
2017-04-09T06:28:16.448Z,40.80
2017-04-09T06:29:16.115Z,44.10
2017-04-09T06:30:15.864Z,35.10
2017-04-09T06:31:15.580Z,44.77
2017-04-09T06:32:15.451Z,38.94
2017-04-09T06:33:15.339Z,40.61
2017-04-09T06:34:15.072Z,37.77
2017-04-09T06:35:14.927Z,41.29
2017-04-09T06:36:14.679Z,38.86
2017-04-09T06:37:14.367Z,36.19
2017-04-09T06:38:14.082Z,37.06
2017-04-09T06:39:13.840Z,37.16
2017-04-09T06:40:13.555Z,33.73
2017-04-09T06:41:13.225Z,34.86
2017-04-09T06:42:13.008Z,35.10
2017-04-09T06:43:12.712Z,36.44
2017-04-09T06:44:12.578Z,37.89
2017-04-09T06:45:12.325Z,35.39
2017-04-09T06:46:12.073Z,35.80
2017-04-09T06:47:11.791Z,34.16
2017-04-09T06:48:11.491Z,34.27
2017-04-09T06:49:11.247Z,36.96
2017-04-09T06:50:11.011Z,34.37
2017-04-09T06:51:10.703Z,35.99
2017-04-09T06:52:10.400Z,36.57
2017-04-09T06:53:10.133Z,36.34
2017-04-09T06:54:09.946Z,34.04
2017-04-09T06:55:09.659Z,35.06
2017-04-09T06:56:09.809Z,36.30
2017-04-09T06:57:09.574Z,33.34
2017-04-09T06:58:09.372Z,32.90
2017-04-09T06:59:09.104Z,36.71
2017-04-09T07:00:08.823Z,35.23
2017-04-09T07:01:08.690Z,34.51
2017-04-09T07:02:08.655Z,36.53
2017-04-09T07:03:08.409Z,36.47
2017-04-09T07:04:08.111Z,34.76
2017-04-09T07:05:07.811Z,36.00
2017-04-09T07:06:07.511Z,33.86
2017-04-09T07:07:07.236Z,35.47
2017-04-09T07:08:07.002Z,36.24
2017-04-09T07:09:06.764Z,35.20
2017-04-09T07:10:06.461Z,35.49
2017-04-09T07:11:06.167Z,35.86
2017-04-09T07:12:06.224Z,36.97
2017-04-09T07:13:05.943Z,33.74
2017-04-09T07:14:05.644Z,33.46
2017-04-09T07:15:05.343Z,32.81
2017-04-09T07:16:06.010Z,34.03
2017-04-09T07:17:05.897Z,35.57
2017-04-09T07:18:05.619Z,34.03
2017-04-09T07:19:05.572Z,34.11
2017-04-09T07:20:05.322Z,31.83
2017-04-09T07:21:05.035Z,35.27
2017-04-09T07:22:04.784Z,32.90
2017-04-09T07:23:04.569Z,34.30
2017-04-09T07:24:04.272Z,32.71
2017-04-09T07:25:04.079Z,33.73
2017-04-09T07:26:03.807Z,32.43
2017-04-09T07:27:03.508Z,31.39
2017-04-09T07:28:03.243Z,30.46
2017-04-09T07:29:03.013Z,29.29
2017-04-09T07:30:02.753Z,29.31
2017-04-09T07:31:02.532Z,31.27
2017-04-09T07:32:02.297Z,29.53
2017-04-09T07:33:02.040Z,27.17
2017-04-09T07:34:01.893Z,28.57
2017-04-09T07:35:01.624Z,29.86
2017-04-09T07:36:01.371Z,25.76
2017-04-09T07:37:01.071Z,23.60
2017-04-09T07:38:01.085Z,25.36
2017-04-09T07:39:00.839Z,25.24
2017-04-09T07:40:01.038Z,23.77
2017-04-09T07:41:00.813Z,26.33
2017-04-09T07:42:00.868Z,26.16
2017-04-09T07:43:00.608Z,28.13
2017-04-09T07:44:00.369Z,26.37
2017-04-09T07:45:00.070Z,26.94
2017-04-09T07:45:59.984Z,26.84
2017-04-09T07:46:59.745Z,27.39
2017-04-09T07:47:59.497Z,26.21
2017-04-09T07:48:59.320Z,25.53
2017-04-09T07:49:59.171Z,26.39
2017-04-09T07:50:59.006Z,24.44
2017-04-09T07:51:58.739Z,26.40
2017-04-09T07:52:58.495Z,24.06
2017-04-09T07:53:58.221Z,25.06
2017-04-09T07:54:57.899Z,29.56
2017-04-09T07:55:58.311Z,25.33
2017-04-09T07:56:58.123Z,24.34
2017-04-09T07:57:57.836Z,24.46
2017-04-09T07:58:57.568Z,26.86
2017-04-09T07:59:57.283Z,27.83
2017-04-09T08:00:57.116Z,26.44
2017-04-09T08:01:56.887Z,25.06
2017-04-09T08:02:56.766Z,24.90
2017-04-09T08:03:56.514Z,26.21
2017-04-09T08:04:56.458Z,25.83
2017-04-09T08:05:56.252Z,26.83
2017-04-09T08:06:55.943Z,25.56
2017-04-09T08:07:55.729Z,26.33
2017-04-09T08:08:55.407Z,24.91
2017-04-09T08:09:55.174Z,26.70
2017-04-09T08:10:54.891Z,27.69
2017-04-09T08:11:54.861Z,27.60
2017-04-09T08:12:54.768Z,27.41
2017-04-09T08:13:54.985Z,28.67
2017-04-09T08:14:55.230Z,24.87
2017-04-09T08:15:54.969Z,25.87
2017-04-09T08:16:55.448Z,25.13
2017-04-09T08:17:56.382Z,25.86
2017-04-09T08:18:56.763Z,25.44
2017-04-09T08:19:56.486Z,25.94
2017-04-09T08:20:56.525Z,24.06
2017-04-09T08:21:58.504Z,26.40
2017-04-09T08:22:58.192Z,26.19
2017-04-09T08:23:57.942Z,25.37
2017-04-09T08:24:58.877Z,25.50
2017-04-09T08:25:59.583Z,25.86
2017-04-09T08:26:59.547Z,26.10
2017-04-09T08:28:03.035Z,24.09
2017-04-09T08:29:05.371Z,24.81
2017-04-09T08:30:07.627Z,25.41
2017-04-09T08:31:07.387Z,26.79
2017-04-09T08:32:09.220Z,25.07
2017-04-09T08:33:08.925Z,24.14
2017-04-09T08:34:08.776Z,24.81
2017-04-09T08:35:08.587Z,24.61
2017-04-09T08:36:08.312Z,24.80
2017-04-09T08:37:08.024Z,25.70
2017-04-09T08:38:07.929Z,25.25
2017-04-09T08:39:07.788Z,24.23
2017-04-09T08:40:07.854Z,25.65
2017-04-09T08:41:07.720Z,23.02
2017-04-09T08:42:07.643Z,21.92
2017-04-09T08:43:07.416Z,26.20
2017-04-09T08:44:07.122Z,26.06
2017-04-09T08:45:06.846Z,23.77
2017-04-09T08:46:06.995Z,26.51
2017-04-09T08:47:06.827Z,24.80
2017-04-09T08:48:06.563Z,25.21
2017-04-09T08:49:06.240Z,24.16
2017-04-09T08:50:06.021Z,24.50
2017-04-09T08:51:05.765Z,25.06
2017-04-09T08:52:06.358Z,23.61
2017-04-09T08:53:07.829Z,25.03
2017-04-09T08:54:07.487Z,24.57
2017-04-09T08:55:07.419Z,24.70
2017-04-09T08:56:07.183Z,22.33
2017-04-09T08:57:07.384Z,22.86
2017-04-09T08:58:08.474Z,23.11
2017-04-09T08:59:08.148Z,21.70
2017-04-09T09:00:08.378Z,22.46
2017-04-09T09:01:08.064Z,20.70
2017-04-09T09:02:07.787Z,19.94
2017-04-09T09:03:07.549Z,18.96
2017-04-09T09:04:07.853Z,19.93
2017-04-09T09:05:07.674Z,21.14
2017-04-09T09:06:07.703Z,18.00
2017-04-09T09:07:07.480Z,19.51
2017-04-09T09:08:07.271Z,20.89
2017-04-09T09:09:07.623Z,20.73
2017-04-09T09:10:07.371Z,18.59
2017-04-09T09:11:07.675Z,17.07
2017-04-09T09:12:07.368Z,18.80
2017-04-09T09:13:07.902Z,17.93
2017-04-09T09:14:07.628Z,17.51
2017-04-09T09:15:07.891Z,18.94
2017-04-09T09:16:07.593Z,15.97
2017-04-09T09:17:07.324Z,17.13
2017-04-09T09:18:07.740Z,17.83
2017-04-09T09:19:07.466Z,17.77
2017-04-09T09:20:07.545Z,17.53
2017-04-09T09:21:07.313Z,19.49
2017-04-09T09:22:07.136Z,20.00
2017-04-09T09:23:06.940Z,19.29
2017-04-09T09:24:06.719Z,19.26
2017-04-09T09:25:06.494Z,18.69
2017-04-09T09:26:06.236Z,18.36
2017-04-09T09:27:05.960Z,19.31
2017-04-09T09:28:05.680Z,18.00
2017-04-09T09:29:05.412Z,18.07
2017-04-09T09:30:05.184Z,18.39
2017-04-09T09:31:04.931Z,18.66
2017-04-09T09:32:05.715Z,18.79
2017-04-09T09:33:05.729Z,17.64
2017-04-09T09:34:05.424Z,16.23
2017-04-09T09:35:05.147Z,17.63
2017-04-09T09:36:04.930Z,17.13
2017-04-09T09:37:04.737Z,17.70
2017-04-09T09:38:04.468Z,19.03
2017-04-09T09:39:04.457Z,17.96
2017-04-09T09:40:04.194Z,18.29
2017-04-09T09:41:04.037Z,17.10
2017-04-09T09:42:03.778Z,17.66
2017-04-09T09:43:03.673Z,18.64
2017-04-09T09:44:03.490Z,17.81
2017-04-09T09:45:03.277Z,18.56
2017-04-09T09:46:03.063Z,16.60
2017-04-09T09:47:02.755Z,15.00
2017-04-09T09:48:02.546Z,16.60
2017-04-09T09:49:02.337Z,16.29
2017-04-09T09:50:02.065Z,16.26
2017-04-09T09:51:01.888Z,16.94
2017-04-09T09:52:01.683Z,18.61
2017-04-09T09:53:01.417Z,19.21
2017-04-09T09:54:01.186Z,16.49
2017-04-09T09:55:00.979Z,17.44
2017-04-09T09:56:00.733Z,17.54
2017-04-09T09:57:00.555Z,16.69
2017-04-09T09:58:00.629Z,17.99
2017-04-09T09:59:01.203Z,16.89
2017-04-09T10:00:00.957Z,17.74
2017-04-09T10:01:00.666Z,17.04
2017-04-09T10:02:00.482Z,16.99
2017-04-09T10:03:00.263Z,16.69
2017-04-09T10:04:00.248Z,18.76
2017-04-09T10:05:00.013Z,21.77
2017-04-09T10:06:00.095Z,21.26
2017-04-09T10:06:59.914Z,21.61
2017-04-09T10:07:59.673Z,21.59
2017-04-09T10:08:59.430Z,20.40
2017-04-09T10:09:59.190Z,22.91
2017-04-09T10:10:58.938Z,24.01
2017-04-09T10:11:58.700Z,22.97
2017-04-09T10:12:58.514Z,23.60
2017-04-09T10:13:59.217Z,25.86
2017-04-09T10:15:00.845Z,27.93
2017-04-09T10:16:00.709Z,33.34
2017-04-09T10:17:00.539Z,32.49
2017-04-09T10:18:00.959Z,31.76
2017-04-09T10:19:00.762Z,31.33
2017-04-09T10:20:00.536Z,33.57
2017-04-09T10:21:00.231Z,31.49
2017-04-09T10:21:59.919Z,35.09
2017-04-09T10:22:59.651Z,32.84
2017-04-09T10:24:00.130Z,32.77
2017-04-09T10:24:59.890Z,31.70
2017-04-09T10:25:59.654Z,35.90
2017-04-09T10:26:59.471Z,34.81
2017-04-09T10:27:59.256Z,39.97
2017-04-09T10:28:59.301Z,37.90
2017-04-09T10:29:59.075Z,36.19
2017-04-09T10:30:59.107Z,34.40
2017-04-09T10:31:58.911Z,33.19
2017-04-09T10:32:58.740Z,36.79
2017-04-09T10:33:58.579Z,35.04
2017-04-09T10:35:01.639Z,33.84
2017-04-09T10:36:02.288Z,35.69
2017-04-09T10:37:02.188Z,38.79
2017-04-09T10:38:01.976Z,38.91
2017-04-09T10:39:01.760Z,33.29
2017-04-09T10:40:01.619Z,35.69
2017-04-09T10:41:01.573Z,36.10
2017-04-09T10:42:01.301Z,37.87
2017-04-09T10:43:01.026Z,33.04
2017-04-09T10:44:00.745Z,32.01
2017-04-09T10:45:00.556Z,33.87
2017-04-09T10:46:00.341Z,36.14
2017-04-09T10:47:00.129Z,35.43
2017-04-09T10:48:00.036Z,33.57
2017-04-09T10:49:00.140Z,35.27
2017-04-09T10:49:59.942Z,34.97
2017-04-09T10:50:59.715Z,33.57
2017-04-09T10:51:59.745Z,33.73
2017-04-09T10:52:59.649Z,33.83
2017-04-09T10:53:59.648Z,32.01
2017-04-09T10:54:59.602Z,33.96
2017-04-09T10:55:59.530Z,34.61
2017-04-09T10:56:59.351Z,32.74
2017-04-09T10:57:59.128Z,30.30
2017-04-09T10:58:58.895Z,34.34
2017-04-09T10:59:58.695Z,32.21
2017-04-09T11:00:58.516Z,34.00
2017-04-09T11:01:58.684Z,32.66
2017-04-09T11:02:58.486Z,32.67
2017-04-09T11:03:58.256Z,31.56
2017-04-09T11:05:12.784Z,31.93
2017-04-09T11:06:12.535Z,33.03
2017-04-09T11:07:12.371Z,30.87
2017-04-09T11:08:12.148Z,30.96
2017-04-09T11:09:12.306Z,30.30
2017-04-09T11:10:12.085Z,30.80
2017-04-09T11:11:11.873Z,28.57
2017-04-09T11:12:11.736Z,30.16
2017-04-09T11:13:12.559Z,27.74
2017-04-09T11:14:12.377Z,30.40
2017-04-09T11:15:16.911Z,28.17
2017-04-09T11:16:16.838Z,27.79
2017-04-09T11:17:17.384Z,27.34
2017-04-09T11:18:17.631Z,27.93
2017-04-09T11:19:17.527Z,30.43
2017-04-09T11:20:19.438Z,29.50
2017-04-09T11:21:21.292Z,29.96
2017-04-09T11:22:25.159Z,28.81
2017-04-09T11:23:25.816Z,29.60
2017-04-09T11:24:25.934Z,27.21
2017-04-09T11:25:26.662Z,28.37
2017-04-09T11:26:27.769Z,28.57
2017-04-09T11:27:27.928Z,28.49
2017-04-09T11:28:29.035Z,26.84
2017-04-09T11:29:31.332Z,27.86
2017-04-09T11:30:31.175Z,28.07
2017-04-09T11:31:32.891Z,28.81
2017-04-09T11:32:32.760Z,30.23
2017-04-09T11:33:33.419Z,28.11
2017-04-09T11:34:33.997Z,27.81
2017-04-09T11:35:33.963Z,28.50
2017-04-09T11:36:33.992Z,30.91
2017-04-09T11:37:33.732Z,31.07
2017-04-09T11:38:34.683Z,28.40
2017-04-09T11:39:34.528Z,27.86
2017-04-09T11:40:38.595Z,25.57
2017-04-09T11:41:38.606Z,26.39
2017-04-09T11:42:38.399Z,25.37
2017-04-09T11:43:38.144Z,25.33
2017-04-09T11:44:38.011Z,23.70
2017-04-09T11:45:37.951Z,25.54
2017-04-09T11:46:37.692Z,26.94
2017-04-09T11:47:37.447Z,26.66
2017-04-09T11:48:37.699Z,24.86
2017-04-09T11:49:37.475Z,25.43
2017-04-09T11:50:37.221Z,26.17
2017-04-09T11:51:37.020Z,25.90
2017-04-09T11:52:37.217Z,24.39
2017-04-09T11:53:37.100Z,25.73
2017-04-09T11:54:36.975Z,24.61
2017-04-09T11:55:37.588Z,24.06
2017-04-09T11:56:37.796Z,24.37
2017-04-09T11:57:37.579Z,23.44
2017-04-09T11:58:37.863Z,24.19
2017-04-09T11:59:37.743Z,23.71
2017-04-09T12:00:37.495Z,24.34
2017-04-09T12:01:37.398Z,25.30
2017-04-09T12:02:37.236Z,24.47
2017-04-09T12:03:37.101Z,22.29
2017-04-09T12:04:36.826Z,24.07
2017-04-09T12:05:36.618Z,24.79
2017-04-09T12:06:36.857Z,25.13
2017-04-09T12:07:36.690Z,23.26
2017-04-09T12:08:36.659Z,24.21
2017-04-09T12:09:36.464Z,23.91
2017-04-09T12:10:36.293Z,23.21
2017-04-09T12:11:36.104Z,24.37
2017-04-09T12:12:35.884Z,26.14
2017-04-09T12:13:36.254Z,23.53
2017-04-09T12:14:36.084Z,24.37
2017-04-09T12:15:35.822Z,23.11
2017-04-09T12:16:35.571Z,22.86
2017-04-09T12:17:35.380Z,23.04
2017-04-09T12:18:35.203Z,22.91
2017-04-09T12:19:35.349Z,22.06
2017-04-09T12:20:35.237Z,22.03
2017-04-09T12:21:35.174Z,22.11
2017-04-09T12:22:35.351Z,21.83
2017-04-09T12:23:35.156Z,22.10
2017-04-09T12:24:36.514Z,22.54
2017-04-09T12:25:36.273Z,23.39
2017-04-09T12:26:37.053Z,22.26
2017-04-09T12:27:37.319Z,23.03
2017-04-09T12:28:37.123Z,20.79
2017-04-09T12:29:37.008Z,21.47
2017-04-09T12:30:37.001Z,22.43
2017-04-09T12:31:36.744Z,20.03
2017-04-09T12:32:36.536Z,21.14
2017-04-09T12:33:37.027Z,22.16
2017-04-09T12:34:36.805Z,23.26
2017-04-09T12:35:36.608Z,23.04
2017-04-09T12:36:37.110Z,22.63
2017-04-09T12:37:37.123Z,21.20
2017-04-09T12:38:37.086Z,22.41
2017-04-09T12:39:36.855Z,24.10
2017-04-09T12:40:36.734Z,21.83
2017-04-09T12:41:36.634Z,23.49
2017-04-09T12:42:36.671Z,22.26
2017-04-09T12:43:36.542Z,22.66
2017-04-09T12:44:36.771Z,21.64
2017-04-09T12:45:37.506Z,21.64
2017-04-09T12:46:38.006Z,22.03
2017-04-09T12:47:37.859Z,21.04
2017-04-09T12:48:37.910Z,21.13
2017-04-09T12:49:38.233Z,20.23
2017-04-09T12:50:38.240Z,20.39
2017-04-09T12:51:38.175Z,19.93
2017-04-09T12:52:37.963Z,20.00